Time;durP1;ratioP1;P1;durP2;ratioP2;P2;SDS_P1;SDS_P2;PMS_P1;PMS_P2;Temp;Humidity;BMP_temperature;BMP_pressure;BME280_temperature;BME280_humidity;BME280_pressure;Samples;Min_cycle;Max_cycle;Signal;HPM_P1;HPM_P2
2022/06/01 00:00:57;;;;;;;2.72;1.82;;;;;;;9.11;79.16;99506.28;1676112;84;21014;-62
2022/06/01 00:03:25;;;;;;;4.00;2.50;;;;;;;9.15;79.22;99502.61;1671110;84;21095;-62
2022/06/01 00:05:53;;;;;;;5.22;2.47;;;;;;;9.16;79.21;99506.93;1666301;84;22002;-61
2022/06/01 00:08:24;;;;;;;5.17;2.40;;;;;;;9.15;79.22;99501.77;1664556;84;21095;-61
2022/06/01 00:10:53;;;;;;;2.58;2.20;;;;;;;9.16;79.38;99493.91;1640824;86;21350;-61
2022/06/01 00:13:21;;;;;;;3.30;2.72;;;;;;;9.24;79.52;99492.23;1674105;84;20997;-61
2022/06/01 00:15:48;;;;;;;5.47;2.37;;;;;;;9.30;79.63;99495.02;1667173;84;21621;-62
2022/06/01 00:18:15;;;;;;;4.40;3.00;;;;;;;9.32;79.69;99487.98;1668181;84;21443;-61
2022/06/01 00:20:42;;;;;;;4.70;3.08;;;;;;;9.32;79.73;99495.80;1674942;84;21060;-62
2022/06/01 00:23:09;;;;;;;4.20;2.92;;;;;;;9.32;79.74;99493.20;1669694;84;21024;-61
2022/06/01 00:25:36;;;;;;;6.08;3.47;;;;;;;9.29;79.78;99485.52;1684135;84;21967;-62
2022/06/01 00:28:05;;;;;;;7.10;3.05;;;;;;;9.28;79.80;99481.23;1643674;85;21021;-62
2022/06/01 00:30:32;;;;;;;6.75;4.05;;;;;;;9.30;79.94;99481.98;1638794;86;21094;-61
2022/06/01 00:32:59;;;;;;;9.60;4.47;;;;;;;9.31;79.96;99488.91;1638299;85;21073;-62
2022/06/01 00:35:26;;;;;;;6.33;3.57;;;;;;;9.32;79.99;99486.68;1670881;84;21029;-61
2022/06/01 00:37:53;;;;;;;8.23;4.80;;;;;;;9.31;80.13;99487.61;1666656;85;20935;-61
2022/06/01 00:40:23;;;;;;;7.57;4.40;;;;;;;9.33;80.43;99487.09;1636531;86;21668;-61
2022/06/01 00:42:53;;;;;;;4.58;3.50;;;;;;;9.40;80.68;99494.53;1638876;85;22261;-61
2022/06/01 00:45:22;;;;;;;6.62;3.83;;;;;;;9.45;80.57;99502.14;1672091;85;20997;-62
2022/06/01 00:47:50;;;;;;;5.45;4.67;;;;;;;9.46;80.64;99493.41;1642082;85;21120;-61
2022/06/01 00:50:28;;;;;;;;;;;;;;;9.49;80.78;99485.44;1644559;85;21143;-61
2022/06/01 00:53:02;;;;;;;4.33;3.92;;;;;;;9.53;80.91;99487.00;1637860;86;20108;-61
2022/06/01 00:55:36;;;;;;;7.00;4.85;;;;;;;9.57;80.93;99485.09;1644480;85;21682;-60
2022/06/01 00:58:18;;;;;;;6.30;5.33;;;;;;;9.58;80.90;99485.03;1641465;85;21156;-61
2022/06/01 01:00:48;;;;;;;4.20;3.58;;;;;;;9.59;80.75;99476.28;1660647;85;20958;-61
2022/06/01 01:03:17;;;;;;;8.15;5.60;;;;;;;9.59;80.77;99467.63;1663773;84;21448;-62
2022/06/01 01:05:51;;;;;;;6.62;4.65;;;;;;;9.58;80.75;99462.88;1644570;85;21536;-61
2022/06/01 01:08:18;;;;;;;9.38;6.30;;;;;;;9.57;80.75;99459.86;1649543;85;21706;-62
2022/06/01 01:10:45;;;;;;;7.47;5.65;;;;;;;9.56;80.89;99459.48;1645621;85;21591;-61
2022/06/01 01:13:15;;;;;;;7.97;5.00;;;;;;;9.57;80.99;99457.72;1646347;85;20991;-61
2022/06/01 01:15:52;;;;;;;10.88;6.22;;;;;;;9.55;80.98;99453.90;1642980;86;21778;-62
2022/06/01 01:18:19;;;;;;;6.05;5.05;;;;;;;9.53;81.06;99447.06;1648016;85;21199;-61
2022/06/01 01:20:54;;;;;;;8.00;6.58;;;;;;;9.52;81.12;99446.23;1645892;85;21978;-62
2022/06/01 01:23:38;;;;;;;12.70;6.62;;;;;;;9.51;81.14;99444.52;1677995;84;21034;-61
2022/06/01 01:26:06;;;;;;;8.73;6.40;;;;;;;9.50;81.13;99448.05;1679554;84;21028;-61
2022/06/01 01:28:34;;;;;;;6.30;5.08;;;;;;;9.45;81.23;99447.42;1670963;84;20940;-62
2022/06/01 01:31:19;;;;;;;8.95;6.22;;;;;;;9.43;81.11;99444.03;1668904;84;22453;-61
2022/06/01 01:33:46;;;;;;;6.67;4.45;;;;;;;9.41;81.18;99449.80;1675673;84;22144;-61
2022/06/01 01:36:15;;;;;;;11.97;6.83;;;;;;;9.39;81.23;99442.50;1662534;85;20990;-61
2022/06/01 01:39:07;;;;;;;11.33;6.12;;;;;;;9.37;81.28;99443.86;1678185;84;21008;-61
2022/06/01 01:41:50;;;;;;;9.00;5.45;;;;;;;9.36;81.47;99437.44;1671530;84;21041;-60
2022/06/01 01:44:39;;;;;;;10.38;6.12;;;;;;;9.41;81.44;99440.67;1660678;85;20957;-61
2022/06/01 01:47:06;;;;;;;6.97;5.50;;;;;;;9.38;81.38;99436.88;1675021;84;21112;-62
2022/06/01 01:49:36;;;;;;;7.97;5.47;;;;;;;9.37;81.45;99439.12;1653077;85;21042;-61
2022/06/01 01:52:07;;;;;;;10.70;7.10;;;;;;;9.38;81.49;99435.58;1664954;85;21059;-62
2022/06/01 01:55:07;;;;;;;9.33;4.92;;;;;;;9.38;81.53;99440.80;1669267;85;21057;-61
2022/06/01 01:58:00;;;;;;;7.40;5.62;;;;;;;9.38;81.56;99422.55;1645555;85;21162;-60
2022/06/01 02:00:37;;;;;;;6.72;4.55;;;;;;;9.37;81.53;99426.09;1681293;84;21631;-61
2022/06/01 02:03:24;;;;;;;5.50;4.37;;;;;;;9.27;81.44;99423.52;1675719;84;21036;-61
2022/06/01 02:06:12;;;;;;;7.90;5.47;;;;;;;9.15;81.55;99427.08;1675387;84;21816;-60
2022/06/01 02:08:49;;;;;;;8.78;5.78;;;;;;;9.07;81.75;99421.83;1679715;84;20977;-60
2022/06/01 02:14:18;;;;;;;10.28;6.22;;;;;;;8.93;81.82;99408.14;1679546;84;21535;-61
2022/06/01 02:16:59;;;;;;;5.45;4.95;;;;;;;8.87;81.91;99403.22;1684212;84;21143;-61
2022/06/01 02:19:31;;;;;;;10.85;6.12;;;;;;;8.84;81.98;99408.56;1679740;84;21609;-61
2022/06/01 02:21:59;;;;;;;8.45;4.78;;;;;;;8.81;82.00;99413.91;1638675;86;21128;-61
2022/06/01 02:24:26;;;;;;;8.60;5.30;;;;;;;8.80;82.15;99407.03;1665548;84;21544;-62
2022/06/01 02:26:55;;;;;;;;;;;;;;;8.78;82.22;99406.24;1670042;84;21089;-62
2022/06/01 02:29:33;;;;;;;6.97;5.70;;;;;;;8.73;82.56;99399.47;1666508;84;20156;-61
2022/06/01 02:32:02;;;;;;;6.42;5.40;;;;;;;8.71;82.46;99405.66;1668277;84;21668;-61
2022/06/01 02:34:30;;;;;;;11.20;6.17;;;;;;;8.66;82.33;99405.87;1665299;84;21103;-61
2022/06/01 02:36:59;;;;;;;6.42;5.33;;;;;;;8.62;82.46;99404.31;1666023;84;21631;-62
2022/06/01 02:39:27;;;;;;;11.55;5.87;;;;;;;8.64;82.54;99410.30;1667508;84;21083;-62
2022/06/01 02:42:31;;;;;;;5.42;4.90;;;;;;;8.60;82.58;99403.55;1670396;84;21110;-62
2022/06/01 02:45:05;;;;;;;8.30;6.65;;;;;;;8.57;82.58;99402.39;1647787;84;21015;-62
2022/06/01 02:47:37;;;;;;;7.58;4.70;;;;;;;8.49;82.41;99403.18;1661110;84;21090;-61
2022/06/01 02:50:06;;;;;;;7.45;6.17;;;;;;;8.45;82.53;99396.41;1668822;84;21030;-61
2022/06/01 02:52:33;;;;;;;5.90;4.12;;;;;;;8.40;82.60;99399.23;1665612;84;21135;-61
2022/06/01 02:55:00;;;;;;;7.92;6.05;;;;;;;8.38;82.74;99394.97;1673183;84;26666;-61
2022/06/01 02:57:27;;;;;;;7.67;6.05;;;;;;;8.42;82.79;99393.94;1673131;84;21538;-61
2022/06/01 02:59:54;;;;;;;7.67;5.80;;;;;;;8.41;82.69;99393.56;1680256;84;21060;-61
2022/06/01 03:02:20;;;;;;;7.03;5.70;;;;;;;8.38;82.76;99387.16;1674156;84;21539;-61
2022/06/01 03:04:47;;;;;;;10.30;7.08;;;;;;;8.37;82.78;99385.45;1683344;84;21538;-61
2022/06/01 03:07:14;;;;;;;9.60;5.97;;;;;;;8.36;82.92;99378.57;1683797;84;21149;-61
2022/06/01 03:09:40;;;;;;;10.50;6.87;;;;;;;8.34;82.84;99379.08;1665732;84;21335;-62
2022/06/01 03:12:09;;;;;;;13.57;5.80;;;;;;;8.29;82.86;99375.41;1680205;84;21195;-62
2022/06/01 03:14:36;;;;;;;17.75;7.20;;;;;;;8.24;82.79;99378.19;1680214;84;21013;-62
2022/06/01 03:17:06;;;;;;;21.87;7.60;;;;;;;8.16;82.75;99377.67;1643988;85;21786;-62
2022/06/01 03:19:34;;;;;;;13.48;6.37;;;;;;;8.12;82.88;99373.50;1663188;84;21070;-61
2022/06/01 03:22:01;;;;;;;24.05;7.30;;;;;;;8.13;83.03;99365.27;1666084;84;20988;-61
2022/06/01 03:24:27;;;;;;;46.10;8.13;;;;;;;8.09;83.00;99369.73;1670447;84;21021;-62
2022/06/01 03:26:55;;;;;;;18.00;7.77;;;;;;;8.06;83.04;99364.66;1676773;84;20969;-62
2022/06/01 03:29:23;;;;;;;11.10;6.50;;;;;;;8.06;83.09;99364.66;1672541;84;21822;-62
2022/06/01 03:31:50;;;;;;;10.13;6.72;;;;;;;8.06;83.16;99365.97;1677922;84;21036;-61
2022/06/01 03:34:17;;;;;;;8.45;5.92;;;;;;;8.09;83.25;99365.83;1678051;84;21005;-60
2022/06/01 03:36:44;;;;;;;13.05;7.42;;;;;;;8.18;83.44;99370.66;1675169;84;21159;-62
2022/06/01 03:39:14;;;;;;;13.80;6.27;;;;;;;8.44;83.93;99366.11;1692315;84;20953;-61
2022/06/01 03:41:41;;;;;;;16.10;6.42;;;;;;;9.93;85.79;99359.91;1666612;84;21094;-62
2022/06/01 03:47:05;;;;;;;11.08;4.90;;;;;;;12.99;83.86;99335.64;1668746;84;21075;-61
2022/06/01 03:49:35;;;;;;;5.90;4.45;;;;;;;14.52;82.63;99345.20;1666856;84;21078;-62
2022/06/01 03:52:03;;;;;;;5.03;4.53;;;;;;;15.47;80.95;99345.95;1666914;84;21622;-63
2022/06/01 03:54:30;;;;;;;6.62;4.37;;;;;;;16.20;80.66;99352.79;1667680;84;21149;-62
2022/06/01 03:56:57;;;;;;;9.48;4.53;;;;;;;16.95;80.89;99341.69;1665883;84;21050;-62
2022/06/01 03:59:24;;;;;;;3.67;3.37;;;;;;;17.68;80.35;99343.63;1666115;84;21117;-62
2022/06/01 04:01:51;;;;;;;5.50;3.25;;;;;;;18.46;80.96;99334.90;1665698;84;21027;-62
2022/06/01 04:04:17;;;;;;;3.55;3.05;;;;;;;18.94;79.76;99341.37;1671764;84;21048;-63
2022/06/01 04:06:44;;;;;;;5.28;3.02;;;;;;;18.24;76.72;99341.67;1667776;84;21107;-62
2022/06/01 04:09:11;;;;;;;5.42;3.35;;;;;;;17.01;76.81;99346.47;1668110;84;21102;-62
2022/06/01 04:11:37;;;;;;;4.30;2.75;;;;;;;16.05;77.88;99344.27;1668571;84;21540;-62
2022/06/01 04:14:04;;;;;;;7.95;3.20;;;;;;;15.23;77.87;99349.40;1667393;84;21100;-62
2022/06/01 04:16:30;;;;;;;6.92;3.33;;;;;;;14.48;78.33;99345.04;1672907;84;21126;-62
2022/06/01 04:18:57;;;;;;;7.67;3.47;;;;;;;13.91;78.72;99345.90;1663586;84;21083;-62
2022/06/01 04:21:26;;;;;;;5.90;3.17;;;;;;;13.37;78.51;99344.19;1650617;85;21041;-61
2022/06/01 04:23:55;;;;;;;4.33;3.70;;;;;;;12.85;78.57;99347.47;1641070;86;21533;-61
2022/06/01 04:26:22;;;;;;;5.90;4.03;;;;;;;12.40;78.69;99344.13;1643410;85;21359;-61
2022/06/01 04:28:51;;;;;;;5.85;4.22;;;;;;;12.04;78.62;99345.39;1645299;85;21008;-61
2022/06/01 04:31:17;;;;;;;4.15;3.75;;;;;;;11.73;78.93;99342.40;1626451;87;21102;-61
2022/06/01 04:33:44;;;;;;;5.83;3.67;;;;;;;11.99;79.93;99335.70;1646264;85;21186;-61
2022/06/01 04:36:11;;;;;;;3.87;3.05;;;;;;;12.95;80.54;99328.93;1621149;87;21064;-62
2022/06/01 04:38:38;;;;;;;4.45;2.92;;;;;;;14.28;81.48;99317.98;1641572;86;21079;-62
2022/06/01 04:41:05;;;;;;;3.95;2.65;;;;;;;15.96;81.18;99315.98;1640166;85;21185;-62
2022/06/01 04:43:31;;;;;;;;;;;;;;;17.23;79.67;99312.12;1628866;86;21160;-62
2022/06/01 04:45:58;;;;;;;2.90;2.45;;;;;;;18.38;78.69;99304.32;1657069;86;20206;-63
2022/06/01 04:48:25;;;;;;;;;;;;;;;19.21;78.18;99300.55;1651356;85;21103;-63
2022/06/01 04:50:53;;;;;;;4.47;2.08;;;;;;;19.85;77.70;99291.19;1627255;87;20502;-63
2022/06/01 04:53:20;;;;;;;2.47;1.87;;;;;;;20.43;76.88;99297.32;1664139;85;21112;-63
2022/06/01 04:58:35;;;;;;;4.40;2.22;;;;;;;21.22;75.45;99297.58;1687956;83;20998;-62
2022/06/01 05:01:02;;;;;;;3.05;2.15;;;;;;;21.10;74.19;99298.80;1681692;84;21057;-62
2022/06/01 05:03:28;;;;;;;;;;;;;;;20.91;73.62;99294.94;1693539;83;21132;-63
2022/06/01 05:05:55;;;;;;;;;;;;;;;20.97;72.42;99290.36;1692261;83;20249;-63
2022/06/01 05:08:21;;;;;;;2.47;1.52;;;;;;;20.84;70.99;99288.08;1690027;83;21336;-63
2022/06/01 05:10:48;;;;;;;9.38;2.52;;;;;;;20.33;70.32;99288.92;1688939;83;21005;-63
2022/06/01 05:13:19;;;;;;;2.67;1.77;;;;;;;20.28;71.42;99287.19;1687144;83;22194;-64
2022/06/01 05:15:55;;;;;;;3.72;2.05;;;;;;;20.63;70.66;99284.84;1688619;84;21053;-64
2022/06/01 05:18:23;;;;;;;4.28;1.95;;;;;;;20.64;69.07;99290.01;1686780;83;21477;-63
2022/06/01 05:20:51;;;;;;;4.62;2.20;;;;;;;20.60;68.27;99283.31;1680227;83;22512;-63
2022/06/01 05:23:17;;;;;;;3.65;2.50;;;;;;;20.47;67.84;99284.96;1683423;84;21029;-63
2022/06/01 05:25:47;;;;;;;3.77;1.80;;;;;;;20.37;67.58;99283.33;1687571;84;21129;-63
2022/06/01 05:28:24;;;;;;;4.83;2.17;;;;;;;20.47;67.64;99288.08;1685228;83;21160;-63
2022/06/01 05:30:53;;;;;;;3.85;2.15;;;;;;;20.57;66.69;99283.61;1682077;83;20996;-64
2022/06/01 05:33:19;;;;;;;2.75;1.80;;;;;;;20.49;66.46;99283.47;1685868;83;22495;-63
2022/06/01 05:35:46;;;;;;;2.67;2.00;;;;;;;20.42;65.15;99274.45;1686374;83;21095;-64
2022/06/01 05:38:12;;;;;;;;;;;;;;;20.50;66.18;99282.48;1686826;83;21140;-63
2022/06/01 05:40:39;;;;;;;2.17;1.50;;;;;;;20.46;63.64;99281.11;1688166;83;20300;-63
2022/06/01 05:43:13;;;;;;;3.15;1.82;;;;;;;20.24;64.28;99294.24;1683167;83;20975;-63
2022/06/01 05:45:40;;;;;;;6.00;1.72;;;;;;;19.94;62.50;99296.16;1682549;84;21092;-63
2022/06/01 05:48:30;;;;;;;7.92;2.35;;;;;;;19.53;63.65;99298.61;1684354;84;21743;-63
2022/06/01 05:50:56;;;;;;;5.72;1.92;;;;;;;19.86;63.98;99290.23;1715464;82;21694;-61
2022/06/01 05:53:23;;;;;;;;;;;;;;;19.81;62.48;99288.49;1717486;82;20965;-61
2022/06/01 05:55:50;;;;;;;6.85;2.27;;;;;;;19.83;62.96;99301.13;1716364;82;20171;-61
2022/06/01 05:58:24;;;;;;;4.33;1.80;;;;;;;19.61;62.34;99290.80;1710647;82;21121;-61
2022/06/01 06:00:54;;;;;;;3.70;1.75;;;;;;;19.32;62.04;99290.29;1730813;82;21050;-62
2022/06/01 06:03:26;;;;;;;3.12;2.12;;;;;;;19.27;62.93;99281.95;1727007;82;21033;-63
2022/06/01 06:06:15;;;;;;;4.40;2.00;;;;;;;19.31;61.77;99281.19;1697044;84;20983;-63
2022/06/01 06:08:53;;;;;;;2.20;1.87;;;;;;;18.94;61.91;99285.81;1712338;82;21038;-62
2022/06/01 06:11:23;;;;;;;2.98;2.08;;;;;;;18.23;61.56;99301.20;1710871;82;21206;-61
2022/06/01 06:13:50;;;;;;;5.20;1.80;;;;;;;17.86;62.21;99300.83;1712117;82;21082;-63
2022/06/01 06:16:19;;;;;;;3.50;2.45;;;;;;;17.64;61.92;99302.61;1711539;82;20987;-63
2022/06/01 06:18:47;;;;;;;2.87;2.00;;;;;;;16.93;61.82;99299.61;1694374;83;21595;-63
2022/06/01 06:21:14;;;;;;;2.77;1.65;;;;;;;16.45;62.21;99299.87;1715896;82;21161;-62
2022/06/01 06:23:40;;;;;;;;;;;;;;;16.11;63.16;99299.03;1715247;82;21105;-62
2022/06/01 06:26:07;;;;;;;2.60;2.12;;;;;;;15.95;63.27;99304.61;1713036;82;26871;-62
2022/06/01 06:28:35;;;;;;;6.72;2.30;;;;;;;15.98;63.46;99296.96;1711163;82;20990;-62
2022/06/01 06:31:03;;;;;;;3.98;2.58;;;;;;;15.91;63.80;99301.00;1710835;82;21040;-62
2022/06/01 06:33:30;;;;;;;2.92;2.20;;;;;;;16.15;63.95;99295.19;1708852;82;21077;-61
2022/06/01 06:36:07;;;;;;;;;;;;;;;16.41;64.18;99292.32;1716524;82;21090;-61
2022/06/01 06:38:39;;;;;;;4.22;2.40;;;;;;;16.58;64.30;99291.86;1712558;82;20465;-62
2022/06/01 06:41:08;;;;;;;5.10;2.58;;;;;;;16.63;63.78;99292.30;1711361;82;20993;-62
2022/06/01 06:43:36;;;;;;;4.72;2.40;;;;;;;16.66;64.90;99286.79;1710641;82;21693;-61
2022/06/01 06:46:08;;;;;;;3.27;2.02;;;;;;;16.96;64.43;99284.85;1709482;82;21076;-62
2022/06/01 06:48:36;;;;;;;4.78;2.15;;;;;;;17.18;64.12;99283.95;1714046;82;21809;-62
2022/06/01 06:51:03;;;;;;;4.53;2.25;;;;;;;17.20;63.39;99284.67;1704558;82;21027;-62
2022/06/01 06:53:33;;;;;;;3.70;2.37;;;;;;;17.15;64.52;99280.25;1706693;82;21028;-62
2022/06/01 06:56:00;;;;;;;3.95;2.10;;;;;;;17.52;64.43;99286.94;1697843;82;21027;-63
2022/06/01 06:58:28;;;;;;;2.55;1.80;;;;;;;17.79;63.34;99273.28;1703105;82;21809;-62
2022/06/01 07:00:55;;;;;;;5.53;2.20;;;;;;;17.47;63.24;99284.67;1704154;82;21453;-63
2022/06/01 07:03:22;;;;;;;3.52;2.15;;;;;;;17.16;63.35;99281.91;1704651;82;20943;-62
2022/06/01 07:08:36;;;;;;;4.65;2.15;;;;;;;16.64;62.97;99285.27;1700484;82;21571;-61
2022/06/01 07:11:03;;;;;;;4.78;2.08;;;;;;;16.24;63.27;99283.93;1700786;82;21026;-62
2022/06/01 07:13:30;;;;;;;2.62;1.95;;;;;;;16.18;63.64;99279.14;1696121;82;21668;-62
2022/06/01 07:16:17;;;;;;;3.27;1.95;;;;;;;16.32;63.70;99284.66;1700826;82;24269;-62
2022/06/01 07:18:46;;;;;;;;;;;;;;;16.27;63.90;99273.18;1707944;82;21034;-62
2022/06/01 07:21:16;;;;;;;5.00;2.22;;;;;;;16.78;63.54;99267.41;1704167;83;20205;-62
2022/06/01 07:23:45;;;;;;;3.27;1.70;;;;;;;17.00;63.56;99260.41;1705816;82;21146;-61
2022/06/01 07:26:17;;;;;;;3.65;1.90;;;;;;;17.19;64.01;99259.23;1701500;82;21709;-63
2022/06/01 07:28:44;;;;;;;2.15;1.62;;;;;;;17.39;63.43;99248.84;1705283;82;21072;-61
2022/06/01 07:31:11;;;;;;;2.87;1.50;;;;;;;17.35;63.53;99248.75;1702260;82;20937;-61
2022/06/01 07:33:38;;;;;;;2.12;1.52;;;;;;;17.36;63.66;99239.86;1700868;82;21088;-61
2022/06/01 07:36:09;;;;;;;2.52;1.52;;;;;;;17.39;63.31;99234.33;1702549;82;20973;-64
2022/06/01 07:44:25;;;;;;;2.65;1.70;;;;;;;17.28;63.84;99239.66;1642805;85;21029;-62
2022/06/01 07:46:52;;;;;;;3.05;1.85;;;;;;;17.19;63.39;99243.41;1641216;85;21091;-62
2022/06/01 07:49:19;;;;;;;5.62;1.90;;;;;;;17.38;63.68;99241.41;1640636;85;21625;-61
2022/06/01 07:51:48;;;;;;;2.67;1.80;;;;;;;17.35;63.36;99244.80;1660101;84;21167;-61
2022/06/01 07:54:15;;;;;;;4.80;1.75;;;;;;;17.24;63.53;99254.91;1653994;85;21610;-62
2022/06/01 07:56:42;;;;;;;3.72;1.87;;;;;;;17.37;63.52;99246.84;1647450;85;21175;-65
2022/06/01 07:59:10;;;;;;;5.47;2.00;;;;;;;17.26;63.22;99260.91;1655423;85;21034;-63
2022/06/01 08:01:37;;;;;;;2.67;2.20;;;;;;;17.20;63.20;99259.61;1646991;85;20986;-63
2022/06/01 08:04:06;;;;;;;2.60;2.15;;;;;;;17.27;63.42;99257.78;1662634;84;21915;-61
2022/06/01 08:06:35;;;;;;;4.83;2.40;;;;;;;17.26;63.29;99263.55;1655905;84;21723;-61
2022/06/01 08:09:04;;;;;;;3.35;2.58;;;;;;;17.17;63.58;99255.91;1643990;85;21144;-61
2022/06/01 08:14:17;;;;;;;3.10;1.95;;;;;;;17.75;64.19;99248.05;1644628;85;21118;-60
2022/06/01 08:16:45;;;;;;;6.25;2.45;;;;;;;17.80;63.56;99261.73;1660719;85;21087;-60
2022/06/01 08:19:13;;;;;;;3.83;2.40;;;;;;;17.81;62.87;99258.12;1661052;85;21633;-61
2022/06/01 08:21:40;;;;;;;4.37;2.60;;;;;;;17.58;62.83;99255.58;1654720;84;21115;-60
2022/06/01 08:24:08;;;;;;;3.30;2.15;;;;;;;17.83;63.57;99249.11;1683860;83;21107;-60
2022/06/01 08:26:36;;;;;;;3.45;2.75;;;;;;;18.11;63.06;99242.30;1682853;83;21118;-61
2022/06/01 08:29:03;;;;;;;3.52;2.10;;;;;;;18.22;63.41;99241.86;1683230;83;21107;-60
2022/06/01 08:31:32;;;;;;;2.87;1.95;;;;;;;18.36;63.25;99237.53;1682652;83;21123;-60
2022/06/01 08:34:01;;;;;;;5.47;2.15;;;;;;;18.66;63.17;99230.53;1683902;84;21055;-60
2022/06/01 08:36:28;;;;;;;3.67;2.47;;;;;;;18.70;63.29;99229.27;1667813;85;21515;-61
2022/06/01 08:38:55;;;;;;;5.33;2.58;;;;;;;18.96;63.49;99222.53;1694973;83;20997;-61
2022/06/01 08:41:27;;;;;;;1.92;1.72;;;;;;;19.27;62.98;99223.73;1684408;83;21537;-60
2022/06/01 08:43:58;;;;;;;3.67;1.80;;;;;;;19.43;63.16;99222.64;1687223;83;21084;-61
2022/06/01 08:46:26;;;;;;;3.05;2.02;;;;;;;19.14;62.15;99229.78;1691937;83;21491;-60
2022/06/01 08:48:57;;;;;;;5.90;2.52;;;;;;;18.85;62.37;99227.95;1692130;83;20992;-61
2022/06/01 08:51:29;;;;;;;3.83;2.15;;;;;;;18.72;62.27;99224.69;1702416;82;21645;-60
2022/06/01 08:53:58;;;;;;;4.20;1.95;;;;;;;18.58;62.42;99222.44;1706104;82;21032;-61
2022/06/01 08:56:45;;;;;;;4.08;2.02;;;;;;;18.51;62.20;99220.34;1726880;82;20979;-60
2022/06/01 08:59:38;;;;;;;;;;;;;;;18.41;62.45;99215.50;1677056;83;21065;-61
2022/06/01 09:02:45;;;;;;;4.33;2.12;;;;;;;18.36;62.28;99208.46;1681864;83;20087;-61
2022/06/01 09:05:44;;;;;;;6.40;1.80;;;;;;;18.46;62.65;99205.38;1687378;83;20977;-61
2022/06/01 09:08:33;;;;;;;8.08;2.30;;;;;;;18.78;62.61;99200.37;1716274;81;21560;-61
2022/06/01 09:11:16;;;;;;;3.42;1.92;;;;;;;18.90;62.56;99191.32;1706039;81;21131;-62
2022/06/01 09:14:10;;;;;;;8.88;2.10;;;;;;;18.90;62.28;99193.14;1714457;82;20994;-63
2022/06/01 09:16:49;;;;;;;4.67;2.50;;;;;;;18.81;62.27;99192.16;1712728;81;21123;-63
2022/06/01 09:19:23;;;;;;;4.87;1.90;;;;;;;18.76;62.07;99186.44;1712088;81;21139;-63
2022/06/01 09:24:55;;;;;;;2.62;1.92;;;;;;;18.49;62.30;99190.56;1716698;81;21121;-62
2022/06/01 09:27:39;;;;;;;2.22;2.00;;;;;;;18.38;62.01;99188.03;1713079;81;21052;-63
2022/06/01 09:30:29;;;;;;;2.83;2.10;;;;;;;18.19;62.12;99185.33;1712819;81;20922;-63
2022/06/01 09:33:34;;;;;;;3.98;2.30;;;;;;;18.16;61.95;99178.99;1718382;81;21113;-63
2022/06/01 09:36:15;;;;;;;2.52;2.08;;;;;;;18.38;62.51;99170.84;1715282;82;22851;-63
2022/06/01 09:38:58;;;;;;;7.50;2.15;;;;;;;18.67;61.97;99170.88;1716268;81;21056;-63
2022/06/01 09:41:40;;;;;;;6.05;2.37;;;;;;;18.99;62.30;99166.70;1719027;81;21132;-61
2022/06/01 09:44:23;;;;;;;3.67;2.08;;;;;;;19.46;62.60;99173.88;1710593;81;21118;-61
2022/06/01 09:46:55;;;;;;;3.27;2.33;;;;;;;19.84;61.06;99165.02;1712951;81;21056;-62
2022/06/01 09:49:42;;;;;;;3.58;2.15;;;;;;;19.79;61.13;99167.27;1713090;81;22169;-62
2022/06/01 09:52:12;;;;;;;6.70;2.20;;;;;;;19.79;61.15;99161.97;1682384;83;21134;-62
2022/06/01 09:54:45;;;;;;;4.58;2.30;;;;;;;19.66;61.13;99154.83;1679499;83;21153;-62
2022/06/01 09:57:25;;;;;;;7.62;2.45;;;;;;;19.64;61.53;99155.45;1677155;84;21654;-63
2022/06/01 10:08:33;;;;;;;3.92;2.30;;;;;;;19.14;61.25;99147.75;1710837;82;21600;-62
2022/06/01 10:11:07;;;;;;;8.98;2.72;;;;;;;19.18;61.20;99142.50;1710507;82;21496;-62
2022/06/01 10:13:39;;;;;;;5.62;2.85;;;;;;;19.07;60.89;99143.98;1710028;82;21065;-62
2022/06/01 10:16:25;;;;;;;4.22;2.17;;;;;;;18.90;60.99;99137.59;1711393;82;21105;-63
2022/06/01 10:18:53;;;;;;;;;;;;;;;18.78;60.92;99144.83;1714149;82;21073;-63
2022/06/01 10:21:26;;;;;;;5.87;2.20;;;;;;;18.83;60.97;99137.32;1711439;82;20435;-63
2022/06/01 10:24:07;;;;;;;2.77;2.08;;;;;;;19.03;61.21;99134.67;1710674;82;21246;-62
2022/06/01 10:26:42;;;;;;;4.30;2.35;;;;;;;19.29;61.17;99131.77;1711558;82;21096;-62
2022/06/01 10:29:16;;;;;;;6.22;2.30;;;;;;;19.42;60.78;99129.65;1712391;82;21595;-63
2022/06/01 10:31:53;;;;;;;3.45;2.30;;;;;;;19.55;60.67;99129.81;1711575;81;21041;-62
2022/06/01 10:34:34;;;;;;;4.53;2.60;;;;;;;19.56;58.96;99124.87;1710754;82;20982;-63
2022/06/01 10:37:15;;;;;;;4.12;2.55;;;;;;;18.89;58.63;99120.89;1711400;82;21066;-63
2022/06/01 10:40:04;;;;;;;5.17;3.00;;;;;;;18.47;59.35;99123.77;1711285;82;21030;-62
2022/06/01 10:45:52;;;;;;;3.60;2.67;;;;;;;18.90;61.14;99118.58;1644864;85;21130;-62
2022/06/01 10:48:33;;;;;;;3.33;2.20;;;;;;;19.58;60.98;99112.34;1644995;85;21046;-63
2022/06/01 10:51:14;;;;;;;4.35;2.00;;;;;;;19.35;58.92;99110.04;1652297;85;21067;-63
2022/06/01 10:54:13;;;;;;;3.55;2.20;;;;;;;19.06;59.73;99114.55;1653132;84;21222;-63
2022/06/01 10:56:39;;;;;;;6.87;2.20;;;;;;;19.23;60.73;99109.84;1654796;84;21642;-65
2022/06/01 10:59:10;;;;;;;6.75;3.17;;;;;;;19.64;60.78;99113.08;1660711;84;21526;-63
2022/06/01 11:01:57;;;;;;;5.53;2.45;;;;;;;19.97;60.94;99110.85;1665289;84;21159;-64
2022/06/01 11:04:39;;;;;;;;;;;;;;;20.25;60.22;99113.85;1652934;84;21142;-63
2022/06/01 11:07:22;;;;;;;2.98;2.05;;;;;;;19.83;58.97;99118.33;1656405;84;20695;-62
2022/06/01 11:10:06;;;;;;;4.42;2.30;;;;;;;19.62;60.15;99107.08;1632917;86;21199;-66
2022/06/01 11:13:13;;;;;;;5.08;2.10;;;;;;;19.89;60.47;99107.14;1628595;86;21668;-63
2022/06/01 11:16:06;;;;;;;6.83;2.70;;;;;;;20.05;59.57;99096.38;1630942;86;21028;-64
2022/06/01 11:18:50;;;;;;;4.75;2.62;;;;;;;20.00;59.97;99092.04;1631428;86;21115;-64
2022/06/01 11:21:50;;;;;;;3.75;2.30;;;;;;;20.28;60.05;99095.49;1598654;86;21671;-64
2022/06/01 11:24:49;;;;;;;6.85;2.50;;;;;;;20.58;60.09;99092.98;1633377;86;21100;-63
2022/06/01 11:27:56;;;;;;;3.40;2.12;;;;;;;20.72;59.70;99087.14;1602404;88;21174;-64
2022/06/01 11:30:28;;;;;;;4.40;2.45;;;;;;;20.59;59.01;99085.38;1629579;86;21084;-63
2022/06/01 11:33:34;;;;;;;7.97;2.35;;;;;;;20.67;58.62;99086.78;1635149;86;21218;-63
2022/06/01 11:36:12;;;;;;;3.05;2.05;;;;;;;20.64;59.11;99085.77;1623013;86;21586;-65
2022/06/01 11:38:46;;;;;;;3.98;2.62;;;;;;;20.65;59.05;99088.75;1628027;86;21100;-63
2022/06/01 11:41:27;;;;;;;3.47;2.30;;;;;;;20.59;59.29;99084.06;1628606;86;21047;-63
2022/06/01 11:44:04;;;;;;;3.87;2.20;;;;;;;20.65;59.19;99082.12;1625890;86;20995;-63
2022/06/01 11:46:48;;;;;;;2.75;2.12;;;;;;;20.76;59.35;99079.23;1640815;84;21041;-63
2022/06/01 11:49:37;;;;;;;3.10;2.15;;;;;;;20.84;59.14;99081.13;1682348;83;21131;-64
2022/06/01 11:52:25;;;;;;;3.77;2.22;;;;;;;20.79;59.22;99082.90;1674545;84;21117;-61
2022/06/01 11:55:12;;;;;;;4.35;2.22;;;;;;;20.66;58.93;99081.62;1723214;82;21106;-62
2022/06/01 11:57:52;;;;;;;3.22;1.87;;;;;;;20.47;58.86;99082.10;1721080;82;20996;-62
2022/06/01 12:00:30;;;;;;;5.15;1.80;;;;;;;20.24;58.75;99081.68;1643308;86;21107;-62
2022/06/01 12:03:17;;;;;;;5.45;2.20;;;;;;;20.04;58.94;99085.45;1645481;84;21122;-62
2022/06/01 12:06:13;;;;;;;7.00;2.40;;;;;;;19.85;58.88;99099.13;1640286;84;21238;-62
2022/06/01 12:09:00;;;;;;;3.10;2.20;;;;;;;19.59;58.81;99094.13;1639825;85;21786;-63
2022/06/01 12:11:45;;;;;;;3.27;1.90;;;;;;;19.33;58.97;99100.08;1614133;87;21630;-63
2022/06/01 12:14:42;;;;;;;2.05;1.82;;;;;;;19.15;59.28;99104.42;1642224;85;21098;-63
2022/06/01 12:17:24;;;;;;;11.80;1.65;;;;;;;19.08;59.32;99122.69;1623360;86;21262;-63
2022/06/01 12:20:13;;;;;;;1.87;0.70;;;;;;;18.80;58.71;99142.89;1640754;86;21135;-63
2022/06/01 12:28:55;;;;;;;1.25;0.53;;;;;;;15.81;58.14;99170.09;1641652;86;21184;-62
2022/06/01 12:31:33;;;;;;;1.70;0.60;;;;;;;15.10;58.29;99177.72;1639468;86;21165;-61
2022/06/01 12:34:25;;;;;;;9.85;1.15;;;;;;;14.62;58.60;99177.27;1641729;86;21101;-61
2022/06/01 12:37:22;;;;;;;3.08;0.80;;;;;;;14.27;58.94;99178.45;1649474;82;21152;-62
2022/06/01 12:40:03;;;;;;;9.20;0.93;;;;;;;13.95;59.15;99186.81;1646838;84;21538;-61
2022/06/01 12:42:44;;;;;;;1.85;0.60;;;;;;;13.73;59.45;99181.38;1665753;85;21022;-61
2022/06/01 12:45:18;;;;;;;1.57;0.80;;;;;;;13.62;59.65;99179.48;1672043;85;21015;-62
2022/06/01 12:48:08;;;;;;;2.60;0.60;;;;;;;13.52;59.88;99176.63;1698613;82;21102;-61
2022/06/01 12:50:52;;;;;;;2.83;0.60;;;;;;;13.33;60.11;99176.19;1697105;82;21007;-63